San Juan, PR (00927)

6:55 AM AST on February 13, 2016 (GMT -0400)
Reparto Metropolitano | | Change Station
CLOSE
Current Station
Personal Weather Station
Location: San Juan, PR
Elevation: 36 ft
Nearby Weather Stations

Elev 36 ft 18.40 °N, 66.08 °W | Updated 8 seconds ago

Scattered Clouds
Scattered Clouds
73.8 °F
Feels Like 74 °F
N
0.0
Wind Variable Wind from SW
Gusts 0.0 mph

Today
High -- | Low -- °F
--% Chance of Precip.
Yesterday
High -- | Low -- °F
Precip. -- in
Pressure 30.02 in
Visibility 10.0 miles
Clouds Few 3000 ft
Scattered Clouds 5500 ft
Heat Index 74 °F
Dew Point 68 °F
Humidity 83%
Rainfall 0.00 in
Snow Depth Not available.
6:53 AM 6:24 PM
Waxing Crescent, 29% visible
METAR TJSJ 130956Z 00000KT 10SM FEW030 SCT055 23/20 A3002 RMK AO2 SLP164 T02330200
Pressure 30.02 in
Visibility 10.0 miles
Clouds Few 3000 ft
Scattered Clouds 5500 ft
Heat Index 74 °F
Dew Point 68 °F
Humidity 83%
Rainfall 0.00 in
Snow Depth Not available.
6:53 AM 6:24 PM
Waxing Crescent, 29% visible
METAR TJSJ 130956Z 00000KT 10SM FEW030 SCT055 23/20 A3002 RMK AO2 SLP164 T02330200

10-Day Weather Forecast

Almanac

Astronomy

Feb. 13, 2016 Rise Set
Actual Time
Civil Twilight
Nautical Twilight
Astronomical Twilight
Moon
Length of Visible Light
Length of Day
Tomorrow will be .
, % of the Moon is Illuminated

Today's Extremes

State Highs State Lows

Community

WunderPhotos

Upload Photos

1,892,537 photos uploaded!

WunderBlog® & News

Nearby

Air Quality

  Air Quality AQ Index Pollutant
Not available.

Snow Depth

Station Depth Elevation

Earthquake Activity

City Distance Mag. Time & Date
Minimum magnitude displayed is 2.5.

Coastal Water Temperatures

Place Temperature

Stations

Nearby Weather Stations

Station Location Temp. Windchill Dew Point Humidity Wind Precip. Elev Updated Type
                   

Watches & Warnings

There are currently no watches in effect.